sensor_id;sensor_type;location;lat;lon;timestamp;temperature;humidity
13229;DHT22;6680;53.220;10.402;2024-03-22T00:00:38;8.10;99.90
13229;DHT22;6680;53.220;10.402;2024-03-22T00:03:05;8.10;99.90
13229;DHT22;6680;53.220;10.402;2024-03-22T00:05:32;8.10;99.90
13229;DHT22;6680;53.220;10.402;2024-03-22T00:08:00;8.10;99.90
13229;DHT22;6680;53.220;10.402;2024-03-22T00:10:26;8.20;99.90
13229;DHT22;6680;53.220;10.402;2024-03-22T00:12:53;8.20;99.90
13229;DHT22;6680;53.220;10.402;2024-03-22T00:15:18;8.20;99.90
13229;DHT22;6680;53.220;10.402;2024-03-22T00:17:45;8.20;99.90
13229;DHT22;6680;53.220;10.402;2024-03-22T00:20:11;8.20;99.90
13229;DHT22;6680;53.220;10.402;2024-03-22T00:22:38;8.20;99.90
13229;DHT22;6680;53.220;10.402;2024-03-22T00:25:06;8.30;99.90
13229;DHT22;6680;53.220;10.402;2024-03-22T00:27:33;8.10;99.90
13229;DHT22;6680;53.220;10.402;2024-03-22T00:29:58;8.30;99.90
13229;DHT22;6680;53.220;10.402;2024-03-22T00:32:25;8.30;99.90
13229;DHT22;6680;53.220;10.402;2024-03-22T00:34:51;8.30;99.90
13229;DHT22;6680;53.220;10.402;2024-03-22T00:37:18;8.40;99.90
13229;DHT22;6680;53.220;10.402;2024-03-22T00:39:44;8.40;99.90
13229;DHT22;6680;53.220;10.402;2024-03-22T00:42:12;8.40;99.90
13229;DHT22;6680;53.220;10.402;2024-03-22T00:44:38;8.40;99.90
13229;DHT22;6680;53.220;10.402;2024-03-22T00:47:05;8.40;99.90
13229;DHT22;6680;53.220;10.402;2024-03-22T00:49:31;8.50;99.90
13229;DHT22;6680;53.220;10.402;2024-03-22T00:51:58;8.50;99.90
13229;DHT22;6680;53.220;10.402;2024-03-22T00:54:24;8.50;99.90
13229;DHT22;6680;53.220;10.402;2024-03-22T00:56:50;8.50;99.90
13229;DHT22;6680;53.220;10.402;2024-03-22T00:59:18;8.60;99.90
13229;DHT22;6680;53.220;10.402;2024-03-22T01:01:44;8.50;99.90
13229;DHT22;6680;53.220;10.402;2024-03-22T01:04:10;8.50;99.90
13229;DHT22;6680;53.220;10.402;2024-03-22T01:06:37;8.60;99.90
13229;DHT22;6680;53.220;10.402;2024-03-22T01:09:05;8.60;99.90
13229;DHT22;6680;53.220;10.402;2024-03-22T01:11:33;8.50;99.90
13229;DHT22;6680;53.220;10.402;2024-03-22T01:13:58;8.50;99.90
13229;DHT22;6680;53.220;10.402;2024-03-22T01:16:27;8.50;99.90
13229;DHT22;6680;53.220;10.402;2024-03-22T01:18:52;8.60;99.90
13229;DHT22;6680;53.220;10.402;2024-03-22T01:21:19;8.60;99.90
13229;DHT22;6680;53.220;10.402;2024-03-22T01:23:50;8.50;99.90
13229;DHT22;6680;53.220;10.402;2024-03-22T01:26:17;8.60;99.90
13229;DHT22;6680;53.220;10.402;2024-03-22T01:28:43;8.60;99.90
13229;DHT22;6680;53.220;10.402;2024-03-22T01:31:10;8.60;99.90
13229;DHT22;6680;53.220;10.402;2024-03-22T01:33:37;8.70;99.90
13229;DHT22;6680;53.220;10.402;2024-03-22T01:36:04;8.70;99.90
13229;DHT22;6680;53.220;10.402;2024-03-22T01:38:30;8.60;99.90
13229;DHT22;6680;53.220;10.402;2024-03-22T01:40:57;8.60;99.90
13229;DHT22;6680;53.220;10.402;2024-03-22T01:43:23;8.60;99.90
13229;DHT22;6680;53.220;10.402;2024-03-22T01:45:50;8.60;99.90
13229;DHT22;6680;53.220;10.402;2024-03-22T01:48:16;8.70;99.90
13229;DHT22;6680;53.220;10.402;2024-03-22T01:50:44;8.70;99.90
13229;DHT22;6680;53.220;10.402;2024-03-22T01:53:10;8.70;99.90
13229;DHT22;6680;53.220;10.402;2024-03-22T01:55:37;8.70;99.90
13229;DHT22;6680;53.220;10.402;2024-03-22T01:58:04;8.70;99.90
13229;DHT22;6680;53.220;10.402;2024-03-22T02:00:31;8.80;99.90
13229;DHT22;6680;53.220;10.402;2024-03-22T02:02:57;8.90;99.90
13229;DHT22;6680;53.220;10.402;2024-03-22T02:05:23;8.80;99.90
13229;DHT22;6680;53.220;10.402;2024-03-22T02:07:51;8.80;99.90
13229;DHT22;6680;53.220;10.402;2024-03-22T02:10:17;8.80;99.90
13229;DHT22;6680;53.220;10.402;2024-03-22T02:12:44;8.70;99.90
13229;DHT22;6680;53.220;10.402;2024-03-22T02:15:10;8.60;99.90
13229;DHT22;6680;53.220;10.402;2024-03-22T02:17:37;8.60;99.90
13229;DHT22;6680;53.220;10.402;2024-03-22T02:20:03;8.60;99.90
13229;DHT22;6680;53.220;10.402;2024-03-22T02:22:30;8.60;99.90
13229;DHT22;6680;53.220;10.402;2024-03-22T02:24:57;8.60;99.90
13229;DHT22;6680;53.220;10.402;2024-03-22T02:27:25;8.70;99.90
13229;DHT22;6680;53.220;10.402;2024-03-22T02:29:51;8.60;99.90
13229;DHT22;6680;53.220;10.402;2024-03-22T02:32:18;8.60;99.90
13229;DHT22;6680;53.220;10.402;2024-03-22T02:34:43;8.60;99.90
13229;DHT22;6680;53.220;10.402;2024-03-22T02:37:10;8.60;99.90
13229;DHT22;6680;53.220;10.402;2024-03-22T02:39:36;8.60;99.90
13229;DHT22;6680;53.220;10.402;2024-03-22T02:42:04;8.60;99.90
13229;DHT22;6680;53.220;10.402;2024-03-22T02:44:30;8.60;99.90
13229;DHT22;6680;53.220;10.402;2024-03-22T02:46:57;8.60;99.90
13229;DHT22;6680;53.220;10.402;2024-03-22T02:49:24;8.60;99.90
13229;DHT22;6680;53.220;10.402;2024-03-22T02:51:51;8.60;99.90
13229;DHT22;6680;53.220;10.402;2024-03-22T02:54:17;8.70;99.90
13229;DHT22;6680;53.220;10.402;2024-03-22T02:56:43;8.70;99.90
13229;DHT22;6680;53.220;10.402;2024-03-22T02:59:11;8.70;99.90
13229;DHT22;6680;53.220;10.402;2024-03-22T03:01:37;8.70;99.90
13229;DHT22;6680;53.220;10.402;2024-03-22T03:04:03;8.70;99.90
13229;DHT22;6680;53.220;10.402;2024-03-22T03:06:30;8.70;99.90
13229;DHT22;6680;53.220;10.402;2024-03-22T03:08:56;8.70;99.90
13229;DHT22;6680;53.220;10.402;2024-03-22T03:11:23;8.70;99.90
13229;DHT22;6680;53.220;10.402;2024-03-22T03:13:49;8.80;99.90
13229;DHT22;6680;53.220;10.402;2024-03-22T03:16:17;8.80;99.90
13229;DHT22;6680;53.220;10.402;2024-03-22T03:18:43;8.80;99.90
13229;DHT22;6680;53.220;10.402;2024-03-22T03:21:09;8.80;99.90
13229;DHT22;6680;53.220;10.402;2024-03-22T03:23:35;8.80;99.90
13229;DHT22;6680;53.220;10.402;2024-03-22T03:26:02;8.90;99.90
13229;DHT22;6680;53.220;10.402;2024-03-22T03:28:28;9.00;99.90
13229;DHT22;6680;53.220;10.402;2024-03-22T03:30:55;9.00;99.90
13229;DHT22;6680;53.220;10.402;2024-03-22T03:33:22;9.00;99.90
13229;DHT22;6680;53.220;10.402;2024-03-22T03:35:49;9.00;99.90
13229;DHT22;6680;53.220;10.402;2024-03-22T03:38:14;9.10;99.90
13229;DHT22;6680;53.220;10.402;2024-03-22T03:40:41;9.00;99.90
13229;DHT22;6680;53.220;10.402;2024-03-22T03:43:07;9.00;99.90
13229;DHT22;6680;53.220;10.402;2024-03-22T03:45:36;9.00;99.90
13229;DHT22;6680;53.220;10.402;2024-03-22T03:48:02;9.00;99.90
13229;DHT22;6680;53.220;10.402;2024-03-22T03:50:30;9.00;99.90
13229;DHT22;6680;53.220;10.402;2024-03-22T03:52:56;9.00;99.90
13229;DHT22;6680;53.220;10.402;2024-03-22T03:55:23;9.00;99.90
13229;DHT22;6680;53.220;10.402;2024-03-22T03:57:50;9.00;99.90
13229;DHT22;6680;53.220;10.402;2024-03-22T04:00:17;9.10;99.90
13229;DHT22;6680;53.220;10.402;2024-03-22T04:02:43;9.10;99.90
13229;DHT22;6680;53.220;10.402;2024-03-22T04:05:09;9.20;99.90
13229;DHT22;6680;53.220;10.402;2024-03-22T04:07:37;9.20;99.90
13229;DHT22;6680;53.220;10.402;2024-03-22T04:10:05;9.20;99.90
13229;DHT22;6680;53.220;10.402;2024-03-22T04:12:31;9.10;99.90
13229;DHT22;6680;53.220;10.402;2024-03-22T04:14:58;9.20;99.90
13229;DHT22;6680;53.220;10.402;2024-03-22T04:17:24;9.20;99.90
13229;DHT22;6680;53.220;10.402;2024-03-22T04:19:50;9.20;99.90
13229;DHT22;6680;53.220;10.402;2024-03-22T04:22:17;9.20;99.90
13229;DHT22;6680;53.220;10.402;2024-03-22T04:24:45;9.20;99.90
13229;DHT22;6680;53.220;10.402;2024-03-22T04:27:11;9.20;99.90
13229;DHT22;6680;53.220;10.402;2024-03-22T04:29:38;9.30;99.90
13229;DHT22;6680;53.220;10.402;2024-03-22T04:32:04;9.30;99.90
13229;DHT22;6680;53.220;10.402;2024-03-22T04:34:30;9.30;99.90
13229;DHT22;6680;53.220;10.402;2024-03-22T04:36:56;9.30;99.90
13229;DHT22;6680;53.220;10.402;2024-03-22T04:39:23;9.40;99.90
13229;DHT22;6680;53.220;10.402;2024-03-22T04:41:52;9.30;99.90
13229;DHT22;6680;53.220;10.402;2024-03-22T04:44:19;9.30;99.90
13229;DHT22;6680;53.220;10.402;2024-03-22T04:46:45;9.40;99.90
13229;DHT22;6680;53.220;10.402;2024-03-22T04:51:38;9.40;99.90
13229;DHT22;6680;53.220;10.402;2024-03-22T04:54:04;9.40;99.90
13229;DHT22;6680;53.220;10.402;2024-03-22T04:56:31;9.30;99.90
13229;DHT22;6680;53.220;10.402;2024-03-22T04:58:59;9.40;99.90
13229;DHT22;6680;53.220;10.402;2024-03-22T05:01:25;9.40;99.90
13229;DHT22;6680;53.220;10.402;2024-03-22T05:03:52;9.40;99.90
13229;DHT22;6680;53.220;10.402;2024-03-22T05:06:17;9.50;99.90
13229;DHT22;6680;53.220;10.402;2024-03-22T05:08:45;9.50;99.90
13229;DHT22;6680;53.220;10.402;2024-03-22T05:11:10;9.50;99.90
13229;DHT22;6680;53.220;10.402;2024-03-22T05:13:37;9.50;99.90
13229;DHT22;6680;53.220;10.402;2024-03-22T05:16:06;9.50;99.90
13229;DHT22;6680;53.220;10.402;2024-03-22T05:18:33;9.50;99.90
13229;DHT22;6680;53.220;10.402;2024-03-22T05:20:59;9.40;99.90
13229;DHT22;6680;53.220;10.402;2024-03-22T05:23:26;9.40;99.90
13229;DHT22;6680;53.220;10.402;2024-03-22T05:25:52;9.50;99.90
13229;DHT22;6680;53.220;10.402;2024-03-22T05:28:19;9.50;99.90
13229;DHT22;6680;53.220;10.402;2024-03-22T05:30:44;9.50;99.90
13229;DHT22;6680;53.220;10.402;2024-03-22T05:33:12;9.50;99.90
13229;DHT22;6680;53.220;10.402;2024-03-22T05:35:38;9.50;99.90
13229;DHT22;6680;53.220;10.402;2024-03-22T05:38:06;9.40;99.90
13229;DHT22;6680;53.220;10.402;2024-03-22T05:40:32;9.50;99.90
13229;DHT22;6680;53.220;10.402;2024-03-22T05:42:59;9.40;99.90
13229;DHT22;6680;53.220;10.402;2024-03-22T05:45:25;9.50;99.90
13229;DHT22;6680;53.220;10.402;2024-03-22T05:47:51;9.50;99.90
13229;DHT22;6680;53.220;10.402;2024-03-22T05:50:20;9.50;99.90
13229;DHT22;6680;53.220;10.402;2024-03-22T05:52:46;9.50;99.90
13229;DHT22;6680;53.220;10.402;2024-03-22T05:55:13;9.60;99.90
13229;DHT22;6680;53.220;10.402;2024-03-22T05:57:38;9.60;99.90
13229;DHT22;6680;53.220;10.402;2024-03-22T06:00:06;9.60;99.90
13229;DHT22;6680;53.220;10.402;2024-03-22T06:02:32;9.60;99.90
13229;DHT22;6680;53.220;10.402;2024-03-22T06:04:59;9.60;99.90
13229;DHT22;6680;53.220;10.402;2024-03-22T06:07:26;9.60;99.90
13229;DHT22;6680;53.220;10.402;2024-03-22T06:09:53;9.70;99.90
13229;DHT22;6680;53.220;10.402;2024-03-22T06:12:19;9.70;99.90
13229;DHT22;6680;53.220;10.402;2024-03-22T06:14:47;9.70;99.90
13229;DHT22;6680;53.220;10.402;2024-03-22T06:17:14;9.70;99.90
13229;DHT22;6680;53.220;10.402;2024-03-22T06:19:41;9.70;99.90
13229;DHT22;6680;53.220;10.402;2024-03-22T06:22:07;9.70;99.90
13229;DHT22;6680;53.220;10.402;2024-03-22T06:24:35;9.70;99.90
13229;DHT22;6680;53.220;10.402;2024-03-22T06:27:01;9.80;99.90
13229;DHT22;6680;53.220;10.402;2024-03-22T06:29:28;9.80;99.90
13229;DHT22;6680;53.220;10.402;2024-03-22T06:31:54;9.90;99.90
13229;DHT22;6680;53.220;10.402;2024-03-22T06:34:21;9.90;99.90
13229;DHT22;6680;53.220;10.402;2024-03-22T06:36:46;10.00;99.90
13229;DHT22;6680;53.220;10.402;2024-03-22T06:39:13;10.10;99.90
13229;DHT22;6680;53.220;10.402;2024-03-22T06:41:41;10.10;99.90
13229;DHT22;6680;53.220;10.402;2024-03-22T06:44:08;10.10;99.90
13229;DHT22;6680;53.220;10.402;2024-03-22T06:46:34;10.20;99.90
13229;DHT22;6680;53.220;10.402;2024-03-22T06:49:03;10.20;99.90
13229;DHT22;6680;53.220;10.402;2024-03-22T06:51:28;10.20;99.90
13229;DHT22;6680;53.220;10.402;2024-03-22T06:53:55;10.30;99.90
13229;DHT22;6680;53.220;10.402;2024-03-22T06:56:21;10.20;99.90
13229;DHT22;6680;53.220;10.402;2024-03-22T06:58:49;10.30;99.90
13229;DHT22;6680;53.220;10.402;2024-03-22T07:01:15;10.40;99.90
13229;DHT22;6680;53.220;10.402;2024-03-22T07:03:42;10.50;99.90
13229;DHT22;6680;53.220;10.402;2024-03-22T07:06:11;10.50;99.90
13229;DHT22;6680;53.220;10.402;2024-03-22T07:08:38;10.50;99.90
13229;DHT22;6680;53.220;10.402;2024-03-22T07:11:05;10.60;99.90
13229;DHT22;6680;53.220;10.402;2024-03-22T07:13:32;10.80;99.90
13229;DHT22;6680;53.220;10.402;2024-03-22T07:16:00;10.90;99.90
13229;DHT22;6680;53.220;10.402;2024-03-22T07:18:27;10.90;99.90
13229;DHT22;6680;53.220;10.402;2024-03-22T07:20:53;11.10;99.90
13229;DHT22;6680;53.220;10.402;2024-03-22T07:23:19;11.20;99.90
13229;DHT22;6680;53.220;10.402;2024-03-22T07:25:46;11.30;99.90
13229;DHT22;6680;53.220;10.402;2024-03-22T07:28:14;11.40;99.90
13229;DHT22;6680;53.220;10.402;2024-03-22T07:30:39;11.40;99.90
13229;DHT22;6680;53.220;10.402;2024-03-22T07:33:10;11.50;99.90
13229;DHT22;6680;53.220;10.402;2024-03-22T07:35:35;11.50;99.90
13229;DHT22;6680;53.220;10.402;2024-03-22T07:38:02;11.50;99.90
13229;DHT22;6680;53.220;10.402;2024-03-22T07:40:29;11.60;99.90
13229;DHT22;6680;53.220;10.402;2024-03-22T07:42:56;11.70;99.90
13229;DHT22;6680;53.220;10.402;2024-03-22T07:45:22;11.80;99.90
13229;DHT22;6680;53.220;10.402;2024-03-22T07:47:49;11.70;99.90
13229;DHT22;6680;53.220;10.402;2024-03-22T07:50:16;11.80;99.90
13229;DHT22;6680;53.220;10.402;2024-03-22T07:52:43;11.70;99.90
13229;DHT22;6680;53.220;10.402;2024-03-22T07:55:09;11.80;99.90
13229;DHT22;6680;53.220;10.402;2024-03-22T07:57:35;11.80;99.90
13229;DHT22;6680;53.220;10.402;2024-03-22T08:00:02;11.70;99.90
13229;DHT22;6680;53.220;10.402;2024-03-22T08:02:29;11.60;99.90
13229;DHT22;6680;53.220;10.402;2024-03-22T08:04:55;11.70;99.90
13229;DHT22;6680;53.220;10.402;2024-03-22T08:07:23;11.60;99.90
13229;DHT22;6680;53.220;10.402;2024-03-22T08:09:49;11.60;99.90
13229;DHT22;6680;53.220;10.402;2024-03-22T08:12:16;11.50;99.90
13229;DHT22;6680;53.220;10.402;2024-03-22T08:14:45;11.50;99.90
13229;DHT22;6680;53.220;10.402;2024-03-22T08:17:11;11.50;99.90
13229;DHT22;6680;53.220;10.402;2024-03-22T08:19:37;11.40;99.90
13229;DHT22;6680;53.220;10.402;2024-03-22T08:22:04;11.40;99.90
13229;DHT22;6680;53.220;10.402;2024-03-22T08:24:31;11.30;99.90
13229;DHT22;6680;53.220;10.402;2024-03-22T08:26:59;11.10;99.90
13229;DHT22;6680;53.220;10.402;2024-03-22T08:29:25;11.10;99.90
13229;DHT22;6680;53.220;10.402;2024-03-22T08:31:51;11.10;99.90
13229;DHT22;6680;53.220;10.402;2024-03-22T08:34:17;11.10;99.90
13229;DHT22;6680;53.220;10.402;2024-03-22T08:36:44;11.10;99.90
13229;DHT22;6680;53.220;10.402;2024-03-22T08:39:10;11.00;99.90
13229;DHT22;6680;53.220;10.402;2024-03-22T08:41:38;11.00;99.90
13229;DHT22;6680;53.220;10.402;2024-03-22T08:44:04;10.90;99.90
13229;DHT22;6680;53.220;10.402;2024-03-22T08:46:31;11.00;99.90
13229;DHT22;6680;53.220;10.402;2024-03-22T08:48:57;11.00;99.90
13229;DHT22;6680;53.220;10.402;2024-03-22T08:51:24;11.00;99.90
13229;DHT22;6680;53.220;10.402;2024-03-22T08:53:50;11.10;99.90
13229;DHT22;6680;53.220;10.402;2024-03-22T08:56:17;11.20;99.90
13229;DHT22;6680;53.220;10.402;2024-03-22T08:58:44;11.20;99.90
13229;DHT22;6680;53.220;10.402;2024-03-22T09:01:11;11.20;99.90
13229;DHT22;6680;53.220;10.402;2024-03-22T09:03:37;11.20;99.90
13229;DHT22;6680;53.220;10.402;2024-03-22T09:06:05;11.20;99.90
13229;DHT22;6680;53.220;10.402;2024-03-22T09:08:31;11.30;99.90
13229;DHT22;6680;53.220;10.402;2024-03-22T09:10:58;11.30;99.90
13229;DHT22;6680;53.220;10.402;2024-03-22T09:13:25;11.30;99.90
13229;DHT22;6680;53.220;10.402;2024-03-22T09:15:57;11.20;99.90
13229;DHT22;6680;53.220;10.402;2024-03-22T09:18:23;11.20;99.90
13229;DHT22;6680;53.220;10.402;2024-03-22T09:20:50;11.20;99.90
13229;DHT22;6680;53.220;10.402;2024-03-22T09:23:16;11.30;99.90
13229;DHT22;6680;53.220;10.402;2024-03-22T09:25:43;11.30;99.90
13229;DHT22;6680;53.220;10.402;2024-03-22T09:28:08;11.30;99.90
13229;DHT22;6680;53.220;10.402;2024-03-22T09:30:38;11.40;99.90
13229;DHT22;6680;53.220;10.402;2024-03-22T09:33:05;11.40;99.90
13229;DHT22;6680;53.220;10.402;2024-03-22T09:35:33;11.40;99.90
13229;DHT22;6680;53.220;10.402;2024-03-22T09:37:59;11.30;99.90
13229;DHT22;6680;53.220;10.402;2024-03-22T09:40:26;11.30;99.90
13229;DHT22;6680;53.220;10.402;2024-03-22T09:42:53;11.30;99.90
13229;DHT22;6680;53.220;10.402;2024-03-22T09:45:20;11.30;99.90
13229;DHT22;6680;53.220;10.402;2024-03-22T09:47:48;11.30;99.90
13229;DHT22;6680;53.220;10.402;2024-03-22T09:50:17;11.30;99.90
13229;DHT22;6680;53.220;10.402;2024-03-22T09:52:44;11.30;99.90
13229;DHT22;6680;53.220;10.402;2024-03-22T09:55:11;11.30;99.90
13229;DHT22;6680;53.220;10.402;2024-03-22T09:57:39;11.40;99.90
13229;DHT22;6680;53.220;10.402;2024-03-22T10:00:10;11.30;99.90
13229;DHT22;6680;53.220;10.402;2024-03-22T10:02:40;11.30;99.90
13229;DHT22;6680;53.220;10.402;2024-03-22T10:05:07;11.30;99.90
13229;DHT22;6680;53.220;10.402;2024-03-22T10:07:34;11.40;99.90
13229;DHT22;6680;53.220;10.402;2024-03-22T10:10:02;11.30;99.90
13229;DHT22;6680;53.220;10.402;2024-03-22T10:12:28;11.30;99.90
13229;DHT22;6680;53.220;10.402;2024-03-22T10:14:55;11.30;99.90
13229;DHT22;6680;53.220;10.402;2024-03-22T10:17:21;11.30;99.90
13229;DHT22;6680;53.220;10.402;2024-03-22T10:19:48;11.30;99.90
13229;DHT22;6680;53.220;10.402;2024-03-22T10:22:17;11.30;99.90
13229;DHT22;6680;53.220;10.402;2024-03-22T10:24:44;11.30;99.90
13229;DHT22;6680;53.220;10.402;2024-03-22T10:27:11;11.20;99.90
13229;DHT22;6680;53.220;10.402;2024-03-22T10:29:37;11.20;99.90
13229;DHT22;6680;53.220;10.402;2024-03-22T10:32:05;11.30;99.90
13229;DHT22;6680;53.220;10.402;2024-03-22T10:34:33;11.30;99.90
13229;DHT22;6680;53.220;10.402;2024-03-22T10:37:00;11.30;99.90
13229;DHT22;6680;53.220;10.402;2024-03-22T10:39:26;11.30;99.90
13229;DHT22;6680;53.220;10.402;2024-03-22T10:41:55;11.20;99.90
13229;DHT22;6680;53.220;10.402;2024-03-22T10:44:21;11.20;99.90
13229;DHT22;6680;53.220;10.402;2024-03-22T10:46:49;11.30;99.90
13229;DHT22;6680;53.220;10.402;2024-03-22T10:49:16;11.30;99.90
13229;DHT22;6680;53.220;10.402;2024-03-22T10:51:46;11.40;99.90
13229;DHT22;6680;53.220;10.402;2024-03-22T10:54:18;11.40;99.90
13229;DHT22;6680;53.220;10.402;2024-03-22T10:56:46;11.40;99.90
13229;DHT22;6680;53.220;10.402;2024-03-22T10:59:14;11.40;99.90
13229;DHT22;6680;53.220;10.402;2024-03-22T11:01:45;11.50;99.90
13229;DHT22;6680;53.220;10.402;2024-03-22T11:04:11;11.50;99.90
13229;DHT22;6680;53.220;10.402;2024-03-22T11:06:38;11.50;99.90
13229;DHT22;6680;53.220;10.402;2024-03-22T11:09:05;11.60;99.90
13229;DHT22;6680;53.220;10.402;2024-03-22T11:11:32;11.60;99.90
13229;DHT22;6680;53.220;10.402;2024-03-22T11:14:02;11.50;99.90
13229;DHT22;6680;53.220;10.402;2024-03-22T11:16:31;11.60;99.90
13229;DHT22;6680;53.220;10.402;2024-03-22T11:18:57;11.60;99.90
13229;DHT22;6680;53.220;10.402;2024-03-22T11:21:23;11.60;99.90
13229;DHT22;6680;53.220;10.402;2024-03-22T11:23:49;11.40;99.90
13229;DHT22;6680;53.220;10.402;2024-03-22T11:26:16;11.40;99.90
13229;DHT22;6680;53.220;10.402;2024-03-22T11:28:42;11.30;99.90
13229;DHT22;6680;53.220;10.402;2024-03-22T11:31:09;11.30;99.90
13229;DHT22;6680;53.220;10.402;2024-03-22T11:33:36;11.40;99.90
13229;DHT22;6680;53.220;10.402;2024-03-22T11:36:04;11.40;99.90
13229;DHT22;6680;53.220;10.402;2024-03-22T11:38:31;11.40;99.90
13229;DHT22;6680;53.220;10.402;2024-03-22T11:40:59;11.40;99.90
13229;DHT22;6680;53.220;10.402;2024-03-22T11:43:27;11.40;99.90
13229;DHT22;6680;53.220;10.402;2024-03-22T11:45:55;11.40;99.90
13229;DHT22;6680;53.220;10.402;2024-03-22T11:48:21;11.50;99.90
13229;DHT22;6680;53.220;10.402;2024-03-22T11:50:49;11.50;99.90
13229;DHT22;6680;53.220;10.402;2024-03-22T11:53:16;11.60;99.90
13229;DHT22;6680;53.220;10.402;2024-03-22T11:55:43;11.50;99.90
13229;DHT22;6680;53.220;10.402;2024-03-22T11:58:09;11.40;99.90
13229;DHT22;6680;53.220;10.402;2024-03-22T12:00:36;11.40;99.90
13229;DHT22;6680;53.220;10.402;2024-03-22T12:03:04;11.40;99.90
13229;DHT22;6680;53.220;10.402;2024-03-22T12:05:31;11.40;99.90
13229;DHT22;6680;53.220;10.402;2024-03-22T12:07:58;11.30;99.90
13229;DHT22;6680;53.220;10.402;2024-03-22T12:10:25;11.20;99.90
13229;DHT22;6680;53.220;10.402;2024-03-22T12:12:51;11.40;99.90
13229;DHT22;6680;53.220;10.402;2024-03-22T12:15:19;11.50;99.90
13229;DHT22;6680;53.220;10.402;2024-03-22T12:17:45;11.40;99.90
13229;DHT22;6680;53.220;10.402;2024-03-22T12:20:12;11.40;99.90
13229;DHT22;6680;53.220;10.402;2024-03-22T12:22:40;11.50;99.90
13229;DHT22;6680;53.220;10.402;2024-03-22T12:25:08;11.60;99.90
13229;DHT22;6680;53.220;10.402;2024-03-22T12:27:35;11.70;99.90
13229;DHT22;6680;53.220;10.402;2024-03-22T12:30:02;11.60;99.90
13229;DHT22;6680;53.220;10.402;2024-03-22T12:32:28;11.60;99.90
13229;DHT22;6680;53.220;10.402;2024-03-22T12:34:55;11.80;99.90
13229;DHT22;6680;53.220;10.402;2024-03-22T12:37:21;12.10;99.90
13229;DHT22;6680;53.220;10.402;2024-03-22T12:39:48;12.00;99.90
13229;DHT22;6680;53.220;10.402;2024-03-22T12:42:15;12.30;99.90
13229;DHT22;6680;53.220;10.402;2024-03-22T12:44:42;12.20;99.90
13229;DHT22;6680;53.220;10.402;2024-03-22T12:47:08;12.00;99.90
13229;DHT22;6680;53.220;10.402;2024-03-22T12:49:35;12.00;99.90
13229;DHT22;6680;53.220;10.402;2024-03-22T12:52:01;11.80;99.90
13229;DHT22;6680;53.220;10.402;2024-03-22T12:54:28;11.80;99.90
13229;DHT22;6680;53.220;10.402;2024-03-22T12:56:54;11.80;99.90
13229;DHT22;6680;53.220;10.402;2024-03-22T12:59:22;12.00;99.90
13229;DHT22;6680;53.220;10.402;2024-03-22T13:01:48;12.10;99.90
13229;DHT22;6680;53.220;10.402;2024-03-22T13:04:15;12.00;99.90
13229;DHT22;6680;53.220;10.402;2024-03-22T13:06:43;11.90;99.90
13229;DHT22;6680;53.220;10.402;2024-03-22T13:09:10;11.80;99.90
13229;DHT22;6680;53.220;10.402;2024-03-22T13:11:36;11.80;99.90
13229;DHT22;6680;53.220;10.402;2024-03-22T13:14:03;11.80;99.90
13229;DHT22;6680;53.220;10.402;2024-03-22T13:16:30;11.70;99.90
13229;DHT22;6680;53.220;10.402;2024-03-22T13:18:57;11.60;99.90
13229;DHT22;6680;53.220;10.402;2024-03-22T13:21:23;11.60;99.90
13229;DHT22;6680;53.220;10.402;2024-03-22T13:23:50;11.60;99.90
13229;DHT22;6680;53.220;10.402;2024-03-22T13:26:16;11.60;99.90
13229;DHT22;6680;53.220;10.402;2024-03-22T13:28:43;11.50;99.90
13229;DHT22;6680;53.220;10.402;2024-03-22T13:31:09;11.60;99.90
13229;DHT22;6680;53.220;10.402;2024-03-22T13:33:37;11.60;99.90
13229;DHT22;6680;53.220;10.402;2024-03-22T13:36:04;11.60;99.90
13229;DHT22;6680;53.220;10.402;2024-03-22T13:38:30;11.60;99.90
13229;DHT22;6680;53.220;10.402;2024-03-22T13:40:58;11.70;99.90
13229;DHT22;6680;53.220;10.402;2024-03-22T13:43:26;11.80;99.90
13229;DHT22;6680;53.220;10.402;2024-03-22T13:45:53;11.80;99.90
13229;DHT22;6680;53.220;10.402;2024-03-22T13:48:20;11.70;99.90
13229;DHT22;6680;53.220;10.402;2024-03-22T13:50:50;11.70;99.90
13229;DHT22;6680;53.220;10.402;2024-03-22T13:53:17;11.70;99.90
13229;DHT22;6680;53.220;10.402;2024-03-22T13:55:43;11.70;99.90
13229;DHT22;6680;53.220;10.402;2024-03-22T13:58:09;11.70;99.90
13229;DHT22;6680;53.220;10.402;2024-03-22T14:00:36;11.50;99.90
13229;DHT22;6680;53.220;10.402;2024-03-22T14:03:03;11.50;99.90
13229;DHT22;6680;53.220;10.402;2024-03-22T14:05:30;11.60;99.90
13229;DHT22;6680;53.220;10.402;2024-03-22T14:07:58;11.60;99.90
13229;DHT22;6680;53.220;10.402;2024-03-22T14:10:24;11.70;99.90
13229;DHT22;6680;53.220;10.402;2024-03-22T14:12:52;11.70;99.90
13229;DHT22;6680;53.220;10.402;2024-03-22T14:15:19;11.70;99.90
13229;DHT22;6680;53.220;10.402;2024-03-22T14:17:45;11.60;99.90
13229;DHT22;6680;53.220;10.402;2024-03-22T14:20:12;11.60;99.90
13229;DHT22;6680;53.220;10.402;2024-03-22T14:22:38;11.70;99.90
13229;DHT22;6680;53.220;10.402;2024-03-22T14:25:08;11.60;99.90
13229;DHT22;6680;53.220;10.402;2024-03-22T14:27:34;11.60;99.90
13229;DHT22;6680;53.220;10.402;2024-03-22T14:30:02;11.50;99.90
13229;DHT22;6680;53.220;10.402;2024-03-22T14:32:30;11.50;99.90
13229;DHT22;6680;53.220;10.402;2024-03-22T14:34:57;11.50;99.90
13229;DHT22;6680;53.220;10.402;2024-03-22T14:37:23;11.60;99.90
13229;DHT22;6680;53.220;10.402;2024-03-22T14:39:50;11.60;99.90
13229;DHT22;6680;53.220;10.402;2024-03-22T14:42:17;11.60;99.90
13229;DHT22;6680;53.220;10.402;2024-03-22T14:44:44;11.60;99.90
13229;DHT22;6680;53.220;10.402;2024-03-22T14:47:10;11.60;99.90
13229;DHT22;6680;53.220;10.402;2024-03-22T14:49:37;11.70;99.90
13229;DHT22;6680;53.220;10.402;2024-03-22T14:52:03;11.80;99.90
13229;DHT22;6680;53.220;10.402;2024-03-22T14:54:30;11.90;99.90
13229;DHT22;6680;53.220;10.402;2024-03-22T14:56:56;12.00;99.90
13229;DHT22;6680;53.220;10.402;2024-03-22T14:59:27;12.10;99.90
13229;DHT22;6680;53.220;10.402;2024-03-22T15:01:53;12.30;99.90
13229;DHT22;6680;53.220;10.402;2024-03-22T15:04:20;12.40;99.90
13229;DHT22;6680;53.220;10.402;2024-03-22T15:06:46;12.50;99.90
13229;DHT22;6680;53.220;10.402;2024-03-22T15:09:16;12.70;99.90
13229;DHT22;6680;53.220;10.402;2024-03-22T15:11:43;12.70;99.90
13229;DHT22;6680;53.220;10.402;2024-03-22T15:14:10;12.60;99.90
13229;DHT22;6680;53.220;10.402;2024-03-22T15:16:37;12.50;99.90
13229;DHT22;6680;53.220;10.402;2024-03-22T15:19:04;12.50;99.90
13229;DHT22;6680;53.220;10.402;2024-03-22T15:21:30;12.30;99.90
13229;DHT22;6680;53.220;10.402;2024-03-22T15:23:57;12.20;99.90
13229;DHT22;6680;53.220;10.402;2024-03-22T15:26:22;12.00;99.90
13229;DHT22;6680;53.220;10.402;2024-03-22T15:28:49;11.90;99.90
13229;DHT22;6680;53.220;10.402;2024-03-22T15:31:15;11.80;99.90
13229;DHT22;6680;53.220;10.402;2024-03-22T15:33:43;11.70;99.90
13229;DHT22;6680;53.220;10.402;2024-03-22T15:36:09;11.80;99.90